sensor_id;sensor_type;location;lat;lon;timestamp;pressure;altitude;pressure_sealevel;temperature;humidity
56992;BME280;42885;49.754;18.636;2023-02-11T00:02:21;100010.05;;;-0.67;100.00
56992;BME280;42885;49.754;18.636;2023-02-11T00:04:52;100006.69;;;-0.63;100.00
56992;BME280;42885;49.754;18.636;2023-02-11T00:07:24;99996.95;;;-0.53;100.00
56992;BME280;42885;49.754;18.636;2023-02-11T00:09:55;100001.86;;;-0.38;100.00
56992;BME280;42885;49.754;18.636;2023-02-11T00:12:27;99988.12;;;-0.39;100.00
56992;BME280;42885;49.754;18.636;2023-02-11T00:14:58;99982.38;;;-0.54;100.00
56992;BME280;42885;49.754;18.636;2023-02-11T00:17:29;99985.05;;;-0.45;100.00
56992;BME280;42885;49.754;18.636;2023-02-11T00:20:01;99980.22;;;-0.18;100.00
56992;BME280;42885;49.754;18.636;2023-02-11T00:22:32;99980.29;;;-0.10;100.00
56992;BME280;42885;49.754;18.636;2023-02-11T00:25:04;99985.00;;;-0.11;100.00
56992;BME280;42885;49.754;18.636;2023-02-11T00:27:36;99977.59;;;-0.21;100.00
56992;BME280;42885;49.754;18.636;2023-02-11T00:30:08;99970.23;;;-0.28;100.00
56992;BME280;42885;49.754;18.636;2023-02-11T00:32:40;99963.73;;;-0.34;100.00
56992;BME280;42885;49.754;18.636;2023-02-11T00:35:11;99966.63;;;-0.43;100.00
56992;BME280;42885;49.754;18.636;2023-02-11T00:37:42;99968.11;;;-0.29;100.00
56992;BME280;42885;49.754;18.636;2023-02-11T00:40:14;99963.25;;;-0.42;100.00
56992;BME280;42885;49.754;18.636;2023-02-11T00:42:45;99968.80;;;-0.42;100.00
56992;BME280;42885;49.754;18.636;2023-02-11T00:45:16;99966.53;;;-0.53;100.00
56992;BME280;42885;49.754;18.636;2023-02-11T00:47:49;99960.16;;;-0.49;100.00
56992;BME280;42885;49.754;18.636;2023-02-11T00:50:20;99951.30;;;-0.35;100.00
56992;BME280;42885;49.754;18.636;2023-02-11T00:52:51;99957.13;;;-0.51;100.00
56992;BME280;42885;49.754;18.636;2023-02-11T00:55:23;99955.89;;;-0.47;100.00
56992;BME280;42885;49.754;18.636;2023-02-11T00:57:54;99953.72;;;-0.47;100.00
56992;BME280;42885;49.754;18.636;2023-02-11T01:00:26;99950.63;;;-0.54;100.00
56992;BME280;42885;49.754;18.636;2023-02-11T01:02:57;99940.02;;;-0.48;100.00
56992;BME280;42885;49.754;18.636;2023-02-11T01:05:28;99937.75;;;-0.58;100.00
56992;BME280;42885;49.754;18.636;2023-02-11T01:07:59;99935.67;;;-0.53;100.00
56992;BME280;42885;49.754;18.636;2023-02-11T01:10:31;99937.34;;;-0.56;100.00
56992;BME280;42885;49.754;18.636;2023-02-11T01:13:02;99924.53;;;-0.52;100.00
56992;BME280;42885;49.754;18.636;2023-02-11T01:15:35;99913.44;;;-0.47;100.00
56992;BME280;42885;49.754;18.636;2023-02-11T01:18:06;99915.66;;;-0.42;100.00
56992;BME280;42885;49.754;18.636;2023-02-11T01:20:37;99910.05;;;-0.44;100.00
56992;BME280;42885;49.754;18.636;2023-02-11T01:23:08;99898.88;;;-0.45;100.00
56992;BME280;42885;49.754;18.636;2023-02-11T01:25:39;99885.15;;;-0.47;100.00
56992;BME280;42885;49.754;18.636;2023-02-11T01:28:16;99882.98;;;-0.47;100.00
56992;BME280;42885;49.754;18.636;2023-02-11T01:30:47;99873.98;;;-0.49;100.00
56992;BME280;42885;49.754;18.636;2023-02-11T01:33:18;99873.84;;;-0.61;100.00
56992;BME280;42885;49.754;18.636;2023-02-11T01:35:50;99858.89;;;-0.56;100.00
56992;BME280;42885;49.754;18.636;2023-02-11T01:38:23;99839.56;;;-0.62;100.00
56992;BME280;42885;49.754;18.636;2023-02-11T01:41:00;99839.59;;;-0.59;100.00
56992;BME280;42885;49.754;18.636;2023-02-11T01:43:35;99831.25;;;-0.78;100.00
56992;BME280;42885;49.754;18.636;2023-02-11T01:46:29;99835.49;;;-0.82;100.00
56992;BME280;42885;49.754;18.636;2023-02-11T01:49:16;99827.75;;;-0.84;100.00
56992;BME280;42885;49.754;18.636;2023-02-11T01:51:49;99834.59;;;-0.86;100.00
56992;BME280;42885;49.754;18.636;2023-02-11T01:54:23;99840.17;;;-0.85;100.00
56992;BME280;42885;49.754;18.636;2023-02-11T01:57:14;99831.53;;;-0.90;100.00
56992;BME280;42885;49.754;18.636;2023-02-11T02:11:12;99828.37;;;-1.05;100.00
56992;BME280;42885;49.754;18.636;2023-02-11T02:13:44;99813.00;;;-1.00;100.00
56992;BME280;42885;49.754;18.636;2023-02-11T02:16:18;99809.61;;;-0.96;100.00
56992;BME280;42885;49.754;18.636;2023-02-11T02:19:05;99804.91;;;-0.97;100.00
56992;BME280;42885;49.754;18.636;2023-02-11T02:22:03;99812.17;;;-0.96;100.00
56992;BME280;42885;49.754;18.636;2023-02-11T02:44:02;99794.45;;;-0.71;100.00
56992;BME280;42885;49.754;18.636;2023-02-11T02:46:34;99797.21;;;-0.51;100.00
56992;BME280;42885;49.754;18.636;2023-02-11T02:49:13;99789.13;;;-0.46;100.00
56992;BME280;42885;49.754;18.636;2023-02-11T02:54:48;99783.08;;;-0.52;100.00
56992;BME280;42885;49.754;18.636;2023-02-11T02:57:31;99774.09;;;-0.49;100.00
56992;BME280;42885;49.754;18.636;2023-02-11T03:00:21;99772.11;;;-0.31;100.00
56992;BME280;42885;49.754;18.636;2023-02-11T03:08:31;99739.45;;;-0.38;100.00
56992;BME280;42885;49.754;18.636;2023-02-11T03:11:02;99725.70;;;-0.45;100.00
56992;BME280;42885;49.754;18.636;2023-02-11T03:13:36;99715.13;;;-0.23;100.00
56992;BME280;42885;49.754;18.636;2023-02-11T03:16:12;99711.53;;;-0.47;100.00
56992;BME280;42885;49.754;18.636;2023-02-11T03:18:46;99714.95;;;-0.46;100.00
56992;BME280;42885;49.754;18.636;2023-02-11T03:21:17;99710.69;;;-0.43;100.00
56992;BME280;42885;49.754;18.636;2023-02-11T03:23:55;99702.20;;;-0.32;100.00
56992;BME280;42885;49.754;18.636;2023-02-11T03:26:29;99710.87;;;-0.19;100.00
56992;BME280;42885;49.754;18.636;2023-02-11T03:29:01;99707.91;;;-0.12;100.00
56992;BME280;42885;49.754;18.636;2023-02-11T03:35:03;99712.23;;;-0.05;100.00
56992;BME280;42885;49.754;18.636;2023-02-11T03:37:39;99716.53;;;-0.04;100.00
56992;BME280;42885;49.754;18.636;2023-02-11T03:40:22;99721.25;;;-0.05;100.00
56992;BME280;42885;49.754;18.636;2023-02-11T03:43:00;99717.86;;;0.02;100.00
56992;BME280;42885;49.754;18.636;2023-02-11T03:45:30;99713.55;;;-0.01;100.00
56992;BME280;42885;49.754;18.636;2023-02-11T03:48:34;99705.44;;;0.05;100.00
56992;BME280;42885;49.754;18.636;2023-02-11T03:50:49;99722.61;;;0.06;100.00
56992;BME280;42885;49.754;18.636;2023-02-11T03:53:22;99723.92;;;0.13;100.00
56992;BME280;42885;49.754;18.636;2023-02-11T03:55:54;99737.66;;;0.12;100.00
56992;BME280;42885;49.754;18.636;2023-02-11T03:58:26;99729.05;;;0.09;100.00
56992;BME280;42885;49.754;18.636;2023-02-11T04:00:57;99731.23;;;0.14;100.00
56992;BME280;42885;49.754;18.636;2023-02-11T04:03:28;99725.67;;;0.18;100.00
56992;BME280;42885;49.754;18.636;2023-02-11T04:06:01;99725.78;;;0.41;100.00
56992;BME280;42885;49.754;18.636;2023-02-11T04:08:32;99718.08;;;0.46;100.00
56992;BME280;42885;49.754;18.636;2023-02-11T04:11:03;99712.48;;;0.45;100.00
56992;BME280;42885;49.754;18.636;2023-02-11T04:13:35;99715.88;;;0.36;100.00
56992;BME280;42885;49.754;18.636;2023-02-11T04:16:05;99701.31;;;0.44;100.00
56992;BME280;42885;49.754;18.636;2023-02-11T04:18:37;99695.73;;;0.43;100.00
56992;BME280;42885;49.754;18.636;2023-02-11T04:21:08;99681.19;;;0.54;100.00
56992;BME280;42885;49.754;18.636;2023-02-11T04:23:39;99669.58;;;0.56;100.00
56992;BME280;42885;49.754;18.636;2023-02-11T04:26:10;99665.76;;;0.64;100.00
56992;BME280;42885;49.754;18.636;2023-02-11T04:28:41;99652.48;;;0.86;100.00
56992;BME280;42885;49.754;18.636;2023-02-11T04:31:12;99641.31;;;0.96;100.00
56992;BME280;42885;49.754;18.636;2023-02-11T04:33:43;99627.58;;;1.01;100.00
56992;BME280;42885;49.754;18.636;2023-02-11T04:36:14;99623.26;;;1.20;100.00
56992;BME280;42885;49.754;18.636;2023-02-11T04:38:45;99621.98;;;1.23;100.00
56992;BME280;42885;49.754;18.636;2023-02-11T04:41:16;99616.38;;;0.75;100.00
56992;BME280;42885;49.754;18.636;2023-02-11T04:43:47;99616.79;;;0.62;100.00
56992;BME280;42885;49.754;18.636;2023-02-11T04:46:18;99621.11;;;0.71;100.00
56992;BME280;42885;49.754;18.636;2023-02-11T04:48:49;99622.80;;;0.61;100.00
56992;BME280;42885;49.754;18.636;2023-02-11T04:51:20;99621.53;;;0.63;100.00
56992;BME280;42885;49.754;18.636;2023-02-11T04:53:51;99600.47;;;0.59;100.00
56992;BME280;42885;49.754;18.636;2023-02-11T04:56:22;99593.14;;;0.46;100.00
56992;BME280;42885;49.754;18.636;2023-02-11T04:58:54;99597.84;;;0.35;100.00
56992;BME280;42885;49.754;18.636;2023-02-11T05:01:24;99605.61;;;0.57;100.00
56992;BME280;42885;49.754;18.636;2023-02-11T05:03:55;99612.50;;;0.66;100.00
56992;BME280;42885;49.754;18.636;2023-02-11T05:06:26;99613.36;;;0.73;100.00
56992;BME280;42885;49.754;18.636;2023-02-11T05:08:57;99604.33;;;0.63;100.00
56992;BME280;42885;49.754;18.636;2023-02-11T05:11:28;99604.36;;;0.74;100.00
56992;BME280;42885;49.754;18.636;2023-02-11T05:13:59;99597.48;;;0.76;100.00
56992;BME280;42885;49.754;18.636;2023-02-11T05:16:31;99590.17;;;0.65;100.00
56992;BME280;42885;49.754;18.636;2023-02-11T05:19:02;99591.88;;;0.69;100.00
56992;BME280;42885;49.754;18.636;2023-02-11T05:21:33;99601.78;;;0.71;100.00
56992;BME280;42885;49.754;18.636;2023-02-11T05:24:05;99609.09;;;0.79;100.00
56992;BME280;42885;49.754;18.636;2023-02-11T05:26:36;99603.08;;;0.85;100.00
56992;BME280;42885;49.754;18.636;2023-02-11T05:29:07;99619.84;;;0.85;100.00
56992;BME280;42885;49.754;18.636;2023-02-11T05:31:38;99623.72;;;0.91;100.00
56992;BME280;42885;49.754;18.636;2023-02-11T05:34:09;99632.31;;;1.00;100.00
56992;BME280;42885;49.754;18.636;2023-02-11T05:36:40;99635.73;;;1.00;100.00
56992;BME280;42885;49.754;18.636;2023-02-11T05:39:11;99631.87;;;1.05;100.00
56992;BME280;42885;49.754;18.636;2023-02-11T05:41:42;99624.58;;;1.14;100.00
56992;BME280;42885;49.754;18.636;2023-02-11T05:44:13;99616.84;;;1.00;100.00
56992;BME280;42885;49.754;18.636;2023-02-11T05:46:44;99602.21;;;0.94;100.00
56992;BME280;42885;49.754;18.636;2023-02-11T05:49:16;99591.44;;;0.46;100.00
56992;BME280;42885;49.754;18.636;2023-02-11T05:51:47;99588.41;;;0.45;100.00
56992;BME280;42885;49.754;18.636;2023-02-11T05:54:18;99597.45;;;0.56;100.00
56992;BME280;42885;49.754;18.636;2023-02-11T05:56:49;99591.03;;;0.76;100.00
56992;BME280;42885;49.754;18.636;2023-02-11T05:59:20;99606.95;;;0.80;100.00
56992;BME280;42885;49.754;18.636;2023-02-11T06:01:51;99605.21;;;0.95;100.00
56992;BME280;42885;49.754;18.636;2023-02-11T06:04:22;99604.37;;;0.99;100.00
56992;BME280;42885;49.754;18.636;2023-02-11T06:06:53;99597.92;;;0.99;100.00
56992;BME280;42885;49.754;18.636;2023-02-11T06:09:25;99596.19;;;0.95;100.00
56992;BME280;42885;49.754;18.636;2023-02-11T06:11:56;99609.54;;;0.96;100.00
56992;BME280;42885;49.754;18.636;2023-02-11T06:14:27;99618.55;;;1.04;100.00
56992;BME280;42885;49.754;18.636;2023-02-11T06:16:58;99618.55;;;1.13;100.00
56992;BME280;42885;49.754;18.636;2023-02-11T06:19:29;99619.83;;;1.18;100.00
56992;BME280;42885;49.754;18.636;2023-02-11T06:22:00;99630.56;;;1.28;100.00
56992;BME280;42885;49.754;18.636;2023-02-11T06:24:31;99637.44;;;1.35;100.00
56992;BME280;42885;49.754;18.636;2023-02-11T06:27:03;99644.34;;;1.30;100.00
56992;BME280;42885;49.754;18.636;2023-02-11T06:29:34;99638.75;;;1.28;100.00
56992;BME280;42885;49.754;18.636;2023-02-11T06:32:05;99636.17;;;1.17;100.00
56992;BME280;42885;49.754;18.636;2023-02-11T06:34:36;99634.87;;;1.17;100.00
56992;BME280;42885;49.754;18.636;2023-02-11T06:37:08;99643.46;;;1.28;100.00
56992;BME280;42885;49.754;18.636;2023-02-11T06:39:39;99631.44;;;1.40;100.00
56992;BME280;42885;49.754;18.636;2023-02-11T06:42:10;99628.42;;;1.20;100.00
56992;BME280;42885;49.754;18.636;2023-02-11T06:44:41;99616.83;;;1.12;100.00
56992;BME280;42885;49.754;18.636;2023-02-11T06:47:13;99614.26;;;1.14;100.00
56992;BME280;42885;49.754;18.636;2023-02-11T06:49:44;99595.76;;;1.31;100.00
56992;BME280;42885;49.754;18.636;2023-02-11T06:52:15;99595.30;;;1.36;100.00
56992;BME280;42885;49.754;18.636;2023-02-11T06:54:46;99583.70;;;1.46;100.00
56992;BME280;42885;49.754;18.636;2023-02-11T06:57:17;99587.09;;;1.62;100.00
56992;BME280;42885;49.754;18.636;2023-02-11T06:59:49;99592.27;;;1.63;100.00
56992;BME280;42885;49.754;18.636;2023-02-11T07:02:20;99583.64;;;1.71;100.00
56992;BME280;42885;49.754;18.636;2023-02-11T07:04:51;99583.19;;;1.79;100.00
56992;BME280;42885;49.754;18.636;2023-02-11T07:07:22;99578.86;;;1.79;100.00
56992;BME280;42885;49.754;18.636;2023-02-11T07:09:53;99573.34;;;1.58;100.00
56992;BME280;42885;49.754;18.636;2023-02-11T07:12:24;99556.58;;;1.52;100.00
56992;BME280;42885;49.754;18.636;2023-02-11T07:14:56;99557.48;;;1.35;100.00
56992;BME280;42885;49.754;18.636;2023-02-11T07:17:28;99559.63;;;1.39;100.00
56992;BME280;42885;49.754;18.636;2023-02-11T07:19:58;99569.95;;;1.41;100.00
56992;BME280;42885;49.754;18.636;2023-02-11T07:22:30;99577.23;;;1.49;100.00
56992;BME280;42885;49.754;18.636;2023-02-11T07:25:01;99571.66;;;1.48;100.00
56992;BME280;42885;49.754;18.636;2023-02-11T07:27:33;99580.69;;;1.48;100.00
56992;BME280;42885;49.754;18.636;2023-02-11T07:30:04;99594.83;;;1.60;100.00
56992;BME280;42885;49.754;18.636;2023-02-11T07:32:35;99607.29;;;1.70;100.00
56992;BME280;42885;49.754;18.636;2023-02-11T07:35:06;99617.59;;;1.79;100.00
56992;BME280;42885;49.754;18.636;2023-02-11T07:37:38;99605.98;;;1.83;100.00
56992;BME280;42885;49.754;18.636;2023-02-11T07:40:09;99602.16;;;1.62;100.00
56992;BME280;42885;49.754;18.636;2023-02-11T07:42:40;99598.28;;;1.59;100.00
56992;BME280;42885;49.754;18.636;2023-02-11T07:45:11;99603.83;;;1.76;100.00
56992;BME280;42885;49.754;18.636;2023-02-11T07:47:43;99598.64;;;1.81;100.00
56992;BME280;42885;49.754;18.636;2023-02-11T07:50:15;99600.74;;;2.01;100.00
56992;BME280;42885;49.754;18.636;2023-02-11T07:52:47;99605.88;;;2.03;100.00
56992;BME280;42885;49.754;18.636;2023-02-11T07:55:18;99593.80;;;2.13;100.00
56992;BME280;42885;49.754;18.636;2023-02-11T07:57:49;99597.28;;;2.01;100.00
56992;BME280;42885;49.754;18.636;2023-02-11T08:00:20;99582.70;;;1.89;100.00
56992;BME280;42885;49.754;18.636;2023-02-11T08:02:51;99570.67;;;1.91;100.00
56992;BME280;42885;49.754;18.636;2023-02-11T08:05:23;99577.55;;;1.84;100.00
56992;BME280;42885;49.754;18.636;2023-02-11T08:07:54;99579.23;;;1.99;100.00
56992;BME280;42885;49.754;18.636;2023-02-11T08:10:26;99575.64;;;2.27;100.00
56992;BME280;42885;49.754;18.636;2023-02-11T08:12:58;99584.63;;;2.36;100.00
56992;BME280;42885;49.754;18.636;2023-02-11T08:15:29;99576.30;;;2.60;98.91
56992;BME280;42885;49.754;18.636;2023-02-11T08:18:00;99573.08;;;2.88;96.58
56992;BME280;42885;49.754;18.636;2023-02-11T08:20:32;99562.69;;;2.96;95.52
56992;BME280;42885;49.754;18.636;2023-02-11T08:23:11;99553.05;;;3.11;93.43
56992;BME280;42885;49.754;18.636;2023-02-11T08:25:37;99555.59;;;3.19;93.22
56992;BME280;42885;49.754;18.636;2023-02-11T08:28:09;99541.99;;;3.39;92.19
56992;BME280;42885;49.754;18.636;2023-02-11T08:30:40;99546.80;;;3.37;91.35
56992;BME280;42885;49.754;18.636;2023-02-11T08:33:11;99541.52;;;3.46;90.84
56992;BME280;42885;49.754;18.636;2023-02-11T08:35:42;99539.28;;;3.53;90.52
56992;BME280;42885;49.754;18.636;2023-02-11T08:38:13;99538.28;;;3.65;89.37
56992;BME280;42885;49.754;18.636;2023-02-11T08:40:44;99538.77;;;3.58;88.91
56992;BME280;42885;49.754;18.636;2023-02-11T08:43:16;99536.94;;;3.70;88.07
56992;BME280;42885;49.754;18.636;2023-02-11T08:45:47;99535.64;;;4.02;87.33
56992;BME280;42885;49.754;18.636;2023-02-11T08:48:18;99548.70;;;3.96;85.73
56992;BME280;42885;49.754;18.636;2023-02-11T08:50:49;99559.27;;;3.77;86.16
56992;BME280;42885;49.754;18.636;2023-02-11T08:53:20;99551.49;;;3.77;86.39
56992;BME280;42885;49.754;18.636;2023-02-11T08:55:54;99545.83;;;3.82;86.45
56992;BME280;42885;49.754;18.636;2023-02-11T08:58:25;99549.14;;;4.27;84.71
56992;BME280;42885;49.754;18.636;2023-02-11T09:00:56;99548.45;;;4.45;84.42
56992;BME280;42885;49.754;18.636;2023-02-11T09:03:28;99560.63;;;4.69;82.25
56992;BME280;42885;49.754;18.636;2023-02-11T09:05:59;99575.88;;;4.89;80.02
56992;BME280;42885;49.754;18.636;2023-02-11T09:08:32;99572.88;;;4.88;79.49
56992;BME280;42885;49.754;18.636;2023-02-11T09:11:04;99569.17;;;5.02;78.95
56992;BME280;42885;49.754;18.636;2023-02-11T09:13:36;99560.23;;;4.66;81.25
56992;BME280;42885;49.754;18.636;2023-02-11T09:16:12;99554.28;;;4.61;81.76
56992;BME280;42885;49.754;18.636;2023-02-11T09:18:41;99552.05;;;4.64;82.62
56992;BME280;42885;49.754;18.636;2023-02-11T09:21:14;99556.66;;;4.74;81.91
56992;BME280;42885;49.754;18.636;2023-02-11T09:23:46;99555.59;;;4.60;81.46
56992;BME280;42885;49.754;18.636;2023-02-11T09:26:19;99548.41;;;4.76;80.97
56992;BME280;42885;49.754;18.636;2023-02-11T09:28:51;99550.33;;;4.64;81.21
56992;BME280;42885;49.754;18.636;2023-02-11T09:31:24;99546.91;;;4.62;83.16
56992;BME280;42885;49.754;18.636;2023-02-11T09:33:58;99542.22;;;4.57;81.41
56992;BME280;42885;49.754;18.636;2023-02-11T09:36:32;99539.13;;;4.62;82.17
56992;BME280;42885;49.754;18.636;2023-02-11T09:39:08;99527.15;;;5.07;81.13
56992;BME280;42885;49.754;18.636;2023-02-11T09:44:33;99521.91;;;4.84;83.16
56992;BME280;42885;49.754;18.636;2023-02-11T09:47:20;99536.16;;;5.10;82.02
56992;BME280;42885;49.754;18.636;2023-02-11T09:50:05;99534.09;;;5.06;82.87
56992;BME280;42885;49.754;18.636;2023-02-11T09:52:50;99535.75;;;5.09;82.60
56992;BME280;42885;49.754;18.636;2023-02-11T09:55:27;99550.09;;;5.06;82.80
56992;BME280;42885;49.754;18.636;2023-02-11T09:58:02;99558.38;;;5.01;84.56
56992;BME280;42885;49.754;18.636;2023-02-11T10:03:46;99564.55;;;4.93;84.10
56992;BME280;42885;49.754;18.636;2023-02-11T10:09:22;99570.67;;;4.91;84.13
56992;BME280;42885;49.754;18.636;2023-02-11T10:12:15;99560.30;;;4.62;84.77
56992;BME280;42885;49.754;18.636;2023-02-11T10:15:01;99553.25;;;4.72;84.67
56992;BME280;42885;49.754;18.636;2023-02-11T10:20:37;99551.56;;;4.67;85.68
56992;BME280;42885;49.754;18.636;2023-02-11T10:23:30;99536.74;;;4.76;85.70
56992;BME280;42885;49.754;18.636;2023-02-11T10:25:56;99521.70;;;4.98;85.31
56992;BME280;42885;49.754;18.636;2023-02-11T10:28:31;99526.88;;;5.22;83.65
56992;BME280;42885;49.754;18.636;2023-02-11T10:31:02;99521.87;;;5.12;83.32
56992;BME280;42885;49.754;18.636;2023-02-11T10:34:00;99515.36;;;5.59;82.68
56992;BME280;42885;49.754;18.636;2023-02-11T10:36:36;99501.55;;;5.35;82.18
56992;BME280;42885;49.754;18.636;2023-02-11T10:39:15;99493.44;;;5.30;82.21
56992;BME280;42885;49.754;18.636;2023-02-11T10:41:51;99488.46;;;5.17;83.48
56992;BME280;42885;49.754;18.636;2023-02-11T10:44:31;99490.92;;;5.01;84.64
56992;BME280;42885;49.754;18.636;2023-02-11T10:47:08;99478.15;;;5.14;85.08
56992;BME280;42885;49.754;18.636;2023-02-11T10:49:41;99491.64;;;5.09;84.13
56992;BME280;42885;49.754;18.636;2023-02-11T10:52:24;99490.91;;;5.02;86.09
56992;BME280;42885;49.754;18.636;2023-02-11T10:57:39;99462.70;;;5.31;84.52
56992;BME280;42885;49.754;18.636;2023-02-11T11:00:35;99439.66;;;5.14;85.45
56992;BME280;42885;49.754;18.636;2023-02-11T11:03:26;99432.03;;;5.06;86.52
56992;BME280;42885;49.754;18.636;2023-02-11T11:05:54;99420.54;;;5.41;84.27
56992;BME280;42885;49.754;18.636;2023-02-11T11:08:39;99409.22;;;5.64;82.67
56992;BME280;42885;49.754;18.636;2023-02-11T11:11:15;99390.75;;;5.77;82.99
56992;BME280;42885;49.754;18.636;2023-02-11T11:13:58;99368.43;;;7.07;74.80
56992;BME280;42885;49.754;18.636;2023-02-11T11:16:34;99368.43;;;7.07;74.80
56992;BME280;42885;49.754;18.636;2023-02-11T11:21:47;99361.78;;;6.97;72.90
56992;BME280;42885;49.754;18.636;2023-02-11T11:24:39;99348.23;;;7.15;71.43
56992;BME280;42885;49.754;18.636;2023-02-11T11:27:20;99363.97;;;6.31;75.78
56992;BME280;42885;49.754;18.636;2023-02-11T11:29:54;99340.66;;;6.43;75.10
56992;BME280;42885;49.754;18.636;2023-02-11T11:32:29;99361.91;;;6.60;75.86
56992;BME280;42885;49.754;18.636;2023-02-11T11:35:16;99363.14;;;6.79;74.86
56992;BME280;42885;49.754;18.636;2023-02-11T11:37:41;99353.48;;;6.99;72.69
56992;BME280;42885;49.754;18.636;2023-02-11T11:40:21;99353.52;;;6.66;73.54
56992;BME280;42885;49.754;18.636;2023-02-11T11:45:56;99369.37;;;6.73;75.27
56992;BME280;42885;49.754;18.636;2023-02-11T11:48:36;99351.71;;;6.34;75.87
56992;BME280;42885;49.754;18.636;2023-02-11T11:51:11;99358.42;;;7.08;73.71
56992;BME280;42885;49.754;18.636;2023-02-11T11:53:49;99355.95;;;7.49;69.97
56992;BME280;42885;49.754;18.636;2023-02-11T11:56:25;99364.30;;;7.60;69.63
56992;BME280;42885;49.754;18.636;2023-02-11T11:59:11;99368.81;;;6.78;71.41
56992;BME280;42885;49.754;18.636;2023-02-11T12:02:10;99372.96;;;6.52;75.85
56992;BME280;42885;49.754;18.636;2023-02-11T12:10:26;99375.41;;;6.24;79.58
56992;BME280;42885;49.754;18.636;2023-02-11T12:33:24;99403.89;;;5.49;87.48
56992;BME280;42885;49.754;18.636;2023-02-11T12:44:35;99396.30;;;5.40;90.98
56992;BME280;42885;49.754;18.636;2023-02-11T12:47:18;99394.00;;;5.05;93.23
56992;BME280;42885;49.754;18.636;2023-02-11T12:49:48;99390.25;;;5.18;94.93
56992;BME280;42885;49.754;18.636;2023-02-11T12:52:48;99394.31;;;5.32;92.79
56992;BME280;42885;49.754;18.636;2023-02-11T12:55:27;99404.12;;;5.38;93.17
56992;BME280;42885;49.754;18.636;2023-02-11T12:58:00;99393.81;;;5.55;92.15
56992;BME280;42885;49.754;18.636;2023-02-11T13:00:49;99399.77;;;5.41;92.73
56992;BME280;42885;49.754;18.636;2023-02-11T13:03:37;99398.91;;;5.40;94.68
56992;BME280;42885;49.754;18.636;2023-02-11T13:06:01;99404.36;;;5.69;94.16
56992;BME280;42885;49.754;18.636;2023-02-11T13:08:58;99397.22;;;5.37;94.53
56992;BME280;42885;49.754;18.636;2023-02-11T13:11:11;99400.78;;;5.12;97.12
56992;BME280;42885;49.754;18.636;2023-02-11T13:13:48;99391.42;;;5.03;99.90
56992;BME280;42885;49.754;18.636;2023-02-11T13:16:37;99391.44;;;5.02;99.84
56992;BME280;42885;49.754;18.636;2023-02-11T13:25:01;99380.40;;;5.36;98.75
56992;BME280;42885;49.754;18.636;2023-02-11T13:30:56;99376.13;;;4.89;100.00
56992;BME280;42885;49.754;18.636;2023-02-11T13:33:37;99362.84;;;5.06;100.00
56992;BME280;42885;49.754;18.636;2023-02-11T13:36:19;99346.48;;;5.03;100.00
56992;BME280;42885;49.754;18.636;2023-02-11T13:38:54;99330.44;;;4.82;100.00
56992;BME280;42885;49.754;18.636;2023-02-11T13:43:59;99322.45;;;4.93;100.00
56992;BME280;42885;49.754;18.636;2023-02-11T13:49:32;99325.63;;;4.86;100.00
56992;BME280;42885;49.754;18.636;2023-02-11T13:52:15;99330.90;;;4.59;100.00
56992;BME280;42885;49.754;18.636;2023-02-11T13:54:38;99323.16;;;4.55;100.00
56992;BME280;42885;49.754;18.636;2023-02-11T13:57:21;99322.02;;;4.48;100.00
56992;BME280;42885;49.754;18.636;2023-02-11T14:00:03;99326.70;;;4.51;100.00
56992;BME280;42885;49.754;18.636;2023-02-11T14:02:35;99339.17;;;4.55;100.00
56992;BME280;42885;49.754;18.636;2023-02-11T14:05:29;99342.27;;;4.51;100.00
56992;BME280;42885;49.754;18.636;2023-02-11T14:08:21;99335.98;;;4.39;100.00
56992;BME280;42885;49.754;18.636;2023-02-11T14:19:45;99271.58;;;4.64;100.00
56992;BME280;42885;49.754;18.636;2023-02-11T14:22:30;99272.66;;;4.54;100.00
56992;BME280;42885;49.754;18.636;2023-02-11T14:25:03;99271.50;;;4.67;100.00
56992;BME280;42885;49.754;18.636;2023-02-11T14:27:46;99283.42;;;4.78;100.00
56992;BME280;42885;49.754;18.636;2023-02-11T14:30:37;99270.61;;;4.68;100.00
56992;BME280;42885;49.754;18.636;2023-02-11T14:33:15;99272.60;;;4.55;100.00
56992;BME280;42885;49.754;18.636;2023-02-11T14:36:46;99278.97;;;4.62;100.00
56992;BME280;42885;49.754;18.636;2023-02-11T14:38:48;99283.92;;;4.74;100.00
56992;BME280;42885;49.754;18.636;2023-02-11T14:41:25;99303.38;;;4.74;100.00
56992;BME280;42885;49.754;18.636;2023-02-11T14:44:05;99303.59;;;4.85;100.00
56992;BME280;42885;49.754;18.636;2023-02-11T14:46:32;99306.52;;;4.89;100.00
56992;BME280;42885;49.754;18.636;2023-02-11T14:49:05;99318.98;;;5.14;100.00
56992;BME280;42885;49.754;18.636;2023-02-11T14:51:41;99317.43;;;5.06;100.00
56992;BME280;42885;49.754;18.636;2023-02-11T14:54:17;99325.97;;;5.10;100.00
56992;BME280;42885;49.754;18.636;2023-02-11T14:57:13;99327.71;;;5.11;100.00
56992;BME280;42885;49.754;18.636;2023-02-11T15:00:00;99320.27;;;4.94;100.00
56992;BME280;42885;49.754;18.636;2023-02-11T15:02:36;99324.88;;;5.01;100.00
56992;BME280;42885;49.754;18.636;2023-02-11T15:07:48;99315.85;;;5.38;100.00
56992;BME280;42885;49.754;18.636;2023-02-11T15:10:33;99320.43;;;5.07;100.00
56992;BME280;42885;49.754;18.636;2023-02-11T15:13:04;99317.06;;;5.02;100.00
56992;BME280;42885;49.754;18.636;2023-02-11T15:15:38;99332.64;;;4.79;100.00
56992;BME280;42885;49.754;18.636;2023-02-11T15:18:22;99328.66;;;4.84;100.00
56992;BME280;42885;49.754;18.636;2023-02-11T15:20:44;99320.95;;;4.81;100.00
56992;BME280;42885;49.754;18.636;2023-02-11T15:23:19;99312.67;;;4.85;100.00
56992;BME280;42885;49.754;18.636;2023-02-11T15:25:49;99315.79;;;4.79;100.00
56992;BME280;42885;49.754;18.636;2023-02-11T15:28:30;99307.37;;;4.91;100.00
56992;BME280;42885;49.754;18.636;2023-02-11T15:31:03;99311.09;;;5.18;100.00
56992;BME280;42885;49.754;18.636;2023-02-11T15:33:35;99317.66;;;5.15;100.00